sensor_id;sensor_type;location;lat;lon;timestamp;pressure;altitude;pressure_sealevel;temperature;humidity
31062;BME280;17724;53.546;9.974;2024-02-16T00:01:46;101203.81;;;13.58;100.00
31062;BME280;17724;53.546;9.974;2024-02-16T00:05:46;101200.66;;;13.34;100.00
31062;BME280;17724;53.546;9.974;2024-02-16T00:09:47;101212.00;;;13.37;100.00
31062;BME280;17724;53.546;9.974;2024-02-16T00:13:47;101195.78;;;13.56;100.00
31062;BME280;17724;53.546;9.974;2024-02-16T00:17:48;101189.84;;;13.27;100.00
31062;BME280;17724;53.546;9.974;2024-02-16T00:21:48;101184.94;;;13.44;100.00
31062;BME280;17724;53.546;9.974;2024-02-16T00:25:49;101178.28;;;13.35;100.00
31062;BME280;17724;53.546;9.974;2024-02-16T00:29:49;101173.19;;;13.22;100.00
31062;BME280;17724;53.546;9.974;2024-02-16T00:33:50;101167.81;;;13.42;100.00
31062;BME280;17724;53.546;9.974;2024-02-16T00:37:50;101163.41;;;13.41;100.00
31062;BME280;17724;53.546;9.974;2024-02-16T00:41:52;101146.25;;;13.44;100.00
31062;BME280;17724;53.546;9.974;2024-02-16T00:45:53;101147.09;;;13.40;100.00
31062;BME280;17724;53.546;9.974;2024-02-16T00:49:53;101150.63;;;13.25;100.00
31062;BME280;17724;53.546;9.974;2024-02-16T00:53:53;101146.56;;;13.48;100.00
31062;BME280;17724;53.546;9.974;2024-02-16T00:57:54;101145.13;;;13.40;100.00
31062;BME280;17724;53.546;9.974;2024-02-16T01:01:54;101154.94;;;13.68;100.00
31062;BME280;17724;53.546;9.974;2024-02-16T01:05:55;101152.59;;;13.35;100.00
31062;BME280;17724;53.546;9.974;2024-02-16T01:09:55;101144.69;;;13.11;100.00
31062;BME280;17724;53.546;9.974;2024-02-16T01:13:56;101144.19;;;13.19;100.00
31062;BME280;17724;53.546;9.974;2024-02-16T01:17:57;101142.63;;;13.28;100.00
31062;BME280;17724;53.546;9.974;2024-02-16T01:22:00;101154.31;;;13.51;100.00
31062;BME280;17724;53.546;9.974;2024-02-16T01:26:00;101163.19;;;13.53;100.00
31062;BME280;17724;53.546;9.974;2024-02-16T01:30:01;101146.63;;;13.63;100.00
31062;BME280;17724;53.546;9.974;2024-02-16T01:34:03;101141.31;;;13.46;100.00
31062;BME280;17724;53.546;9.974;2024-02-16T01:38:03;101139.69;;;13.50;100.00
31062;BME280;17724;53.546;9.974;2024-02-16T01:42:04;101132.53;;;13.12;100.00
31062;BME280;17724;53.546;9.974;2024-02-16T01:46:04;101126.47;;;13.15;100.00
31062;BME280;17724;53.546;9.974;2024-02-16T01:50:05;101116.97;;;12.96;100.00
31062;BME280;17724;53.546;9.974;2024-02-16T01:54:07;101123.50;;;13.22;100.00
31062;BME280;17724;53.546;9.974;2024-02-16T01:58:08;101117.28;;;12.99;100.00
31062;BME280;17724;53.546;9.974;2024-02-16T02:02:08;101113.56;;;13.21;100.00
31062;BME280;17724;53.546;9.974;2024-02-16T02:06:09;101095.19;;;12.99;100.00
31062;BME280;17724;53.546;9.974;2024-02-16T02:10:10;101095.91;;;12.79;100.00
31062;BME280;17724;53.546;9.974;2024-02-16T02:14:13;101086.91;;;12.99;100.00
31062;BME280;17724;53.546;9.974;2024-02-16T02:18:13;101098.69;;;12.85;100.00
31062;BME280;17724;53.546;9.974;2024-02-16T02:22:20;101083.31;;;12.99;100.00
31062;BME280;17724;53.546;9.974;2024-02-16T02:26:21;101084.16;;;13.04;100.00
31062;BME280;17724;53.546;9.974;2024-02-16T02:30:22;101082.69;;;12.81;100.00
31062;BME280;17724;53.546;9.974;2024-02-16T02:34:23;101082.84;;;12.65;100.00
31062;BME280;17724;53.546;9.974;2024-02-16T02:38:23;101076.91;;;12.88;100.00
31062;BME280;17724;53.546;9.974;2024-02-16T02:42:24;101072.88;;;13.11;100.00
31062;BME280;17724;53.546;9.974;2024-02-16T02:46:24;101069.63;;;13.19;100.00
31062;BME280;17724;53.546;9.974;2024-02-16T02:50:24;101060.72;;;13.12;100.00
31062;BME280;17724;53.546;9.974;2024-02-16T02:54:25;101054.13;;;13.13;100.00
31062;BME280;17724;53.546;9.974;2024-02-16T02:58:25;101059.81;;;12.96;100.00
31062;BME280;17724;53.546;9.974;2024-02-16T03:02:26;101052.84;;;13.26;100.00
31062;BME280;17724;53.546;9.974;2024-02-16T03:06:27;101054.44;;;13.17;100.00
31062;BME280;17724;53.546;9.974;2024-02-16T03:10:27;101038.09;;;13.05;100.00
31062;BME280;17724;53.546;9.974;2024-02-16T03:14:34;101024.00;;;13.12;100.00
31062;BME280;17724;53.546;9.974;2024-02-16T03:18:35;101028.69;;;13.06;100.00
31062;BME280;17724;53.546;9.974;2024-02-16T03:22:36;101014.53;;;12.92;100.00
31062;BME280;17724;53.546;9.974;2024-02-16T03:26:36;101004.09;;;13.04;100.00
31062;BME280;17724;53.546;9.974;2024-02-16T03:30:37;100996.63;;;12.95;100.00
31062;BME280;17724;53.546;9.974;2024-02-16T03:34:37;101002.75;;;13.12;100.00
31062;BME280;17724;53.546;9.974;2024-02-16T03:38:40;100998.09;;;13.13;100.00
31062;BME280;17724;53.546;9.974;2024-02-16T03:42:41;100999.81;;;13.29;100.00
31062;BME280;17724;53.546;9.974;2024-02-16T03:46:42;101004.28;;;13.45;100.00
31062;BME280;17724;53.546;9.974;2024-02-16T03:50:43;101006.22;;;13.45;100.00
31062;BME280;17724;53.546;9.974;2024-02-16T03:54:44;101003.75;;;13.59;100.00
31062;BME280;17724;53.546;9.974;2024-02-16T03:58:47;101005.69;;;13.53;100.00
31062;BME280;17724;53.546;9.974;2024-02-16T04:02:48;101004.88;;;13.63;100.00
31062;BME280;17724;53.546;9.974;2024-02-16T04:06:48;101004.03;;;13.57;100.00
31062;BME280;17724;53.546;9.974;2024-02-16T04:10:49;100997.94;;;13.60;100.00
31062;BME280;17724;53.546;9.974;2024-02-16T04:14:50;100991.63;;;13.65;100.00
31062;BME280;17724;53.546;9.974;2024-02-16T04:18:51;100992.69;;;13.64;100.00
31062;BME280;17724;53.546;9.974;2024-02-16T04:22:51;100983.88;;;13.57;100.00
31062;BME280;17724;53.546;9.974;2024-02-16T04:26:52;100985.53;;;13.63;100.00
31062;BME280;17724;53.546;9.974;2024-02-16T04:30:52;100995.16;;;13.55;100.00
31062;BME280;17724;53.546;9.974;2024-02-16T04:34:53;100993.22;;;13.45;100.00
31062;BME280;17724;53.546;9.974;2024-02-16T04:38:53;100988.53;;;13.41;100.00
31062;BME280;17724;53.546;9.974;2024-02-16T04:42:53;100985.78;;;13.46;100.00
31062;BME280;17724;53.546;9.974;2024-02-16T04:46:55;100991.84;;;13.38;100.00
31062;BME280;17724;53.546;9.974;2024-02-16T04:50:55;100986.31;;;13.43;100.00
31062;BME280;17724;53.546;9.974;2024-02-16T04:54:56;100979.38;;;13.40;100.00
31062;BME280;17724;53.546;9.974;2024-02-16T04:58:56;100981.91;;;13.52;100.00
31062;BME280;17724;53.546;9.974;2024-02-16T05:02:57;100968.63;;;13.39;100.00
31062;BME280;17724;53.546;9.974;2024-02-16T05:06:57;100970.31;;;13.55;100.00
31062;BME280;17724;53.546;9.974;2024-02-16T05:11:00;100976.69;;;13.66;100.00
31062;BME280;17724;53.546;9.974;2024-02-16T05:15:00;100976.66;;;13.50;100.00
31062;BME280;17724;53.546;9.974;2024-02-16T05:19:01;100972.78;;;13.51;100.00
31062;BME280;17724;53.546;9.974;2024-02-16T05:23:01;100979.13;;;13.42;100.00
31062;BME280;17724;53.546;9.974;2024-02-16T05:27:02;100970.56;;;13.48;100.00
31062;BME280;17724;53.546;9.974;2024-02-16T05:31:12;100961.72;;;13.51;100.00
31062;BME280;17724;53.546;9.974;2024-02-16T05:35:14;100954.53;;;13.35;100.00
31062;BME280;17724;53.546;9.974;2024-02-16T05:39:16;100952.03;;;13.28;100.00
31062;BME280;17724;53.546;9.974;2024-02-16T05:43:31;100959.47;;;13.28;100.00
31062;BME280;17724;53.546;9.974;2024-02-16T05:47:33;100956.16;;;13.36;100.00
31062;BME280;17724;53.546;9.974;2024-02-16T05:51:37;100956.41;;;13.24;100.00
31062;BME280;17724;53.546;9.974;2024-02-16T05:55:39;100955.63;;;13.29;100.00
31062;BME280;17724;53.546;9.974;2024-02-16T05:59:41;100953.38;;;13.21;100.00
31062;BME280;17724;53.546;9.974;2024-02-16T06:03:42;100967.50;;;13.35;100.00
31062;BME280;17724;53.546;9.974;2024-02-16T06:07:43;100959.97;;;13.20;100.00
31062;BME280;17724;53.546;9.974;2024-02-16T06:11:43;100963.88;;;13.24;100.00
31062;BME280;17724;53.546;9.974;2024-02-16T06:15:44;100966.66;;;13.24;100.00
31062;BME280;17724;53.546;9.974;2024-02-16T06:19:44;100961.38;;;13.22;100.00
31062;BME280;17724;53.546;9.974;2024-02-16T06:23:48;100955.03;;;13.22;100.00
31062;BME280;17724;53.546;9.974;2024-02-16T06:27:48;100945.03;;;13.11;100.00
31062;BME280;17724;53.546;9.974;2024-02-16T06:31:50;100952.84;;;13.24;100.00
31062;BME280;17724;53.546;9.974;2024-02-16T06:35:50;100958.03;;;13.10;100.00
31062;BME280;17724;53.546;9.974;2024-02-16T06:39:51;100965.19;;;13.06;100.00
31062;BME280;17724;53.546;9.974;2024-02-16T06:43:52;100969.63;;;13.12;100.00
31062;BME280;17724;53.546;9.974;2024-02-16T06:47:52;100974.59;;;13.20;100.00
31062;BME280;17724;53.546;9.974;2024-02-16T06:51:53;100968.56;;;13.23;100.00
31062;BME280;17724;53.546;9.974;2024-02-16T06:55:53;100969.66;;;13.22;100.00
31062;BME280;17724;53.546;9.974;2024-02-16T06:59:55;100958.03;;;13.10;100.00
31062;BME280;17724;53.546;9.974;2024-02-16T07:03:57;100966.06;;;13.22;100.00
31062;BME280;17724;53.546;9.974;2024-02-16T07:07:57;100969.91;;;13.16;100.00
31062;BME280;17724;53.546;9.974;2024-02-16T07:11:59;100979.81;;;13.06;100.00
31062;BME280;17724;53.546;9.974;2024-02-16T07:15:59;100981.69;;;12.96;100.00
31062;BME280;17724;53.546;9.974;2024-02-16T07:20:00;100989.22;;;13.11;100.00
31062;BME280;17724;53.546;9.974;2024-02-16T07:24:04;100977.06;;;13.01;100.00
31062;BME280;17724;53.546;9.974;2024-02-16T07:28:04;100981.75;;;13.06;100.00
31062;BME280;17724;53.546;9.974;2024-02-16T07:32:05;100986.31;;;13.33;100.00
31062;BME280;17724;53.546;9.974;2024-02-16T07:36:06;100992.66;;;13.43;100.00
31062;BME280;17724;53.546;9.974;2024-02-16T07:40:07;100980.81;;;13.53;99.14
31062;BME280;17724;53.546;9.974;2024-02-16T07:44:09;100986.88;;;13.45;99.11
31062;BME280;17724;53.546;9.974;2024-02-16T07:48:10;100994.31;;;13.39;98.42
31062;BME280;17724;53.546;9.974;2024-02-16T07:52:10;101004.00;;;13.52;99.32
31062;BME280;17724;53.546;9.974;2024-02-16T07:56:10;101007.59;;;13.42;98.82
31062;BME280;17724;53.546;9.974;2024-02-16T08:00:11;100998.75;;;13.50;98.77
31062;BME280;17724;53.546;9.974;2024-02-16T08:04:12;101003.22;;;13.57;97.91
31062;BME280;17724;53.546;9.974;2024-02-16T08:08:13;100982.47;;;13.49;97.33
31062;BME280;17724;53.546;9.974;2024-02-16T08:12:13;100985.22;;;13.59;96.60
31062;BME280;17724;53.546;9.974;2024-02-16T08:16:14;100983.84;;;13.72;96.16
31062;BME280;17724;53.546;9.974;2024-02-16T08:20:14;100991.59;;;13.75;95.67
31062;BME280;17724;53.546;9.974;2024-02-16T08:24:15;100978.34;;;13.72;96.28
31062;BME280;17724;53.546;9.974;2024-02-16T08:28:15;100960.63;;;13.42;96.94
31062;BME280;17724;53.546;9.974;2024-02-16T08:32:16;100961.13;;;13.24;98.37
31062;BME280;17724;53.546;9.974;2024-02-16T08:36:16;100972.50;;;13.43;99.34
31062;BME280;17724;53.546;9.974;2024-02-16T08:40:17;100973.91;;;13.50;98.79
31062;BME280;17724;53.546;9.974;2024-02-16T08:44:17;100982.69;;;13.32;98.94
31062;BME280;17724;53.546;9.974;2024-02-16T08:48:19;100978.06;;;13.53;98.65
31062;BME280;17724;53.546;9.974;2024-02-16T08:52:19;100975.28;;;13.58;98.30
31062;BME280;17724;53.546;9.974;2024-02-16T08:56:20;100968.38;;;13.55;98.18
31062;BME280;17724;53.546;9.974;2024-02-16T09:00:20;100970.03;;;13.46;99.00
31062;BME280;17724;53.546;9.974;2024-02-16T09:04:21;100971.13;;;13.55;99.00
31062;BME280;17724;53.546;9.974;2024-02-16T09:08:21;100972.81;;;13.72;98.32
31062;BME280;17724;53.546;9.974;2024-02-16T09:12:22;100972.53;;;13.78;97.53
31062;BME280;17724;53.546;9.974;2024-02-16T09:16:23;100975.31;;;13.89;97.85
31062;BME280;17724;53.546;9.974;2024-02-16T09:20:24;100967.81;;;13.64;98.32
31062;BME280;17724;53.546;9.974;2024-02-16T09:24:24;100955.69;;;13.70;98.13
31062;BME280;17724;53.546;9.974;2024-02-16T09:28:29;100960.94;;;13.76;97.35
31062;BME280;17724;53.546;9.974;2024-02-16T09:32:29;100962.03;;;13.75;97.38
31062;BME280;17724;53.546;9.974;2024-02-16T09:36:30;100960.09;;;13.71;98.07
31062;BME280;17724;53.546;9.974;2024-02-16T09:40:31;100964.78;;;13.96;97.57
31062;BME280;17724;53.546;9.974;2024-02-16T09:44:32;100969.75;;;14.04;97.61
31062;BME280;17724;53.546;9.974;2024-02-16T09:48:35;100966.19;;;14.03;97.54
31062;BME280;17724;53.546;9.974;2024-02-16T09:52:36;100977.53;;;14.02;97.15
31062;BME280;17724;53.546;9.974;2024-02-16T09:56:37;100975.28;;;14.19;96.64
31062;BME280;17724;53.546;9.974;2024-02-16T10:00:37;100968.38;;;14.12;96.57
31062;BME280;17724;53.546;9.974;2024-02-16T10:04:38;100963.41;;;14.29;96.16
31062;BME280;17724;53.546;9.974;2024-02-16T10:08:52;100950.88;;;14.62;95.65
31062;BME280;17724;53.546;9.974;2024-02-16T10:13:06;100967.22;;;14.69;93.19
31062;BME280;17724;53.546;9.974;2024-02-16T10:17:08;100974.06;;;14.87;92.30
31062;BME280;17724;53.546;9.974;2024-02-16T10:21:09;100980.88;;;15.10;92.08
31062;BME280;17724;53.546;9.974;2024-02-16T10:25:10;100989.13;;;15.25;91.16
31062;BME280;17724;53.546;9.974;2024-02-16T10:29:17;100982.47;;;15.26;89.84
31062;BME280;17724;53.546;9.974;2024-02-16T10:33:20;100995.06;;;15.47;90.59
31062;BME280;17724;53.546;9.974;2024-02-16T10:37:21;100986.41;;;15.59;89.92
31062;BME280;17724;53.546;9.974;2024-02-16T10:41:26;100994.47;;;15.61;89.93
31062;BME280;17724;53.546;9.974;2024-02-16T10:45:33;101000.00;;;15.66;89.44
31062;BME280;17724;53.546;9.974;2024-02-16T10:49:34;100981.88;;;15.79;87.62
31062;BME280;17724;53.546;9.974;2024-02-16T10:53:34;100991.03;;;16.13;84.87
31062;BME280;17724;53.546;9.974;2024-02-16T10:57:36;100984.91;;;16.16;81.67
31062;BME280;17724;53.546;9.974;2024-02-16T11:01:38;100988.94;;;16.29;80.31
31062;BME280;17724;53.546;9.974;2024-02-16T11:05:42;100985.91;;;16.25;79.20
31062;BME280;17724;53.546;9.974;2024-02-16T11:09:43;100966.84;;;16.48;79.26
31062;BME280;17724;53.546;9.974;2024-02-16T11:13:45;100980.47;;;16.44;79.81
31062;BME280;17724;53.546;9.974;2024-02-16T11:17:46;100969.47;;;16.58;79.16
31062;BME280;17724;53.546;9.974;2024-02-16T11:21:59;100961.63;;;16.65;79.08
31062;BME280;17724;53.546;9.974;2024-02-16T11:26:05;100973.81;;;16.69;78.74
31062;BME280;17724;53.546;9.974;2024-02-16T11:30:11;100964.72;;;16.64;78.69
31062;BME280;17724;53.546;9.974;2024-02-16T11:34:21;100956.59;;;16.67;79.28
31062;BME280;17724;53.546;9.974;2024-02-16T11:38:22;100956.31;;;16.69;78.88
31062;BME280;17724;53.546;9.974;2024-02-16T11:42:22;100951.69;;;16.59;79.06
31062;BME280;17724;53.546;9.974;2024-02-16T11:46:23;100971.50;;;16.53;79.39
31062;BME280;17724;53.546;9.974;2024-02-16T11:50:26;100957.44;;;16.44;79.99
31062;BME280;17724;53.546;9.974;2024-02-16T11:54:26;100963.03;;;16.63;80.45
31062;BME280;17724;53.546;9.974;2024-02-16T11:58:27;100971.31;;;16.73;80.52
31062;BME280;17724;53.546;9.974;2024-02-16T12:02:28;100969.47;;;16.58;80.12
31062;BME280;17724;53.546;9.974;2024-02-16T12:06:29;100960.03;;;16.59;79.98
31062;BME280;17724;53.546;9.974;2024-02-16T12:10:30;100951.66;;;16.40;80.26
31062;BME280;17724;53.546;9.974;2024-02-16T12:14:31;100962.34;;;16.52;80.58
31062;BME280;17724;53.546;9.974;2024-02-16T12:18:32;100958.38;;;16.58;80.53
31062;BME280;17724;53.546;9.974;2024-02-16T12:22:32;100965.53;;;16.64;80.62
31062;BME280;17724;53.546;9.974;2024-02-16T12:26:33;100954.56;;;16.78;80.55
31062;BME280;17724;53.546;9.974;2024-02-16T12:30:33;100967.91;;;16.52;80.30
31062;BME280;17724;53.546;9.974;2024-02-16T12:34:34;100966.78;;;16.53;81.07
31062;BME280;17724;53.546;9.974;2024-02-16T12:38:34;100963.59;;;16.65;80.67
31062;BME280;17724;53.546;9.974;2024-02-16T12:42:35;100953.63;;;16.64;81.36
31062;BME280;17724;53.546;9.974;2024-02-16T12:46:35;100972.31;;;16.53;80.87
31062;BME280;17724;53.546;9.974;2024-02-16T12:50:36;100967.41;;;16.74;81.57
31062;BME280;17724;53.546;9.974;2024-02-16T12:54:39;100982.19;;;16.64;81.42
31062;BME280;17724;53.546;9.974;2024-02-16T12:58:39;100971.69;;;16.61;81.56
31062;BME280;17724;53.546;9.974;2024-02-16T13:02:40;100987.97;;;16.73;82.21
31062;BME280;17724;53.546;9.974;2024-02-16T13:06:40;100984.19;;;16.88;81.94
31062;BME280;17724;53.546;9.974;2024-02-16T13:10:41;100977.53;;;16.60;82.40
31062;BME280;17724;53.546;9.974;2024-02-16T13:14:42;100978.22;;;16.70;83.43
31062;BME280;17724;53.546;9.974;2024-02-16T13:18:43;100973.63;;;16.61;83.12
31062;BME280;17724;53.546;9.974;2024-02-16T13:22:43;100982.66;;;16.71;82.89
31062;BME280;17724;53.546;9.974;2024-02-16T13:26:44;100979.63;;;16.73;83.09
31062;BME280;17724;53.546;9.974;2024-02-16T13:30:45;100990.47;;;16.69;83.92
31062;BME280;17724;53.546;9.974;2024-02-16T13:34:45;100991.69;;;16.58;84.30
31062;BME280;17724;53.546;9.974;2024-02-16T13:38:46;101000.38;;;16.51;84.44
31062;BME280;17724;53.546;9.974;2024-02-16T13:42:46;101005.69;;;16.48;85.12
31062;BME280;17724;53.546;9.974;2024-02-16T13:46:48;101001.78;;;16.49;85.54
31062;BME280;17724;53.546;9.974;2024-02-16T13:50:49;100996.94;;;16.36;85.91
31062;BME280;17724;53.546;9.974;2024-02-16T13:54:50;101008.25;;;16.39;85.81
31062;BME280;17724;53.546;9.974;2024-02-16T13:58:51;101013.59;;;16.36;86.42
31062;BME280;17724;53.546;9.974;2024-02-16T14:02:51;101006.28;;;16.45;86.78
31062;BME280;17724;53.546;9.974;2024-02-16T14:06:52;101005.97;;;16.46;86.45
31062;BME280;17724;53.546;9.974;2024-02-16T14:10:53;101003.03;;;16.62;86.86
31062;BME280;17724;53.546;9.974;2024-02-16T14:14:57;101010.19;;;16.73;85.16
31062;BME280;17724;53.546;9.974;2024-02-16T14:18:58;100990.75;;;16.44;85.66
31062;BME280;17724;53.546;9.974;2024-02-16T14:22:58;101017.56;;;16.54;86.22
31062;BME280;17724;53.546;9.974;2024-02-16T14:26:59;101024.41;;;16.37;86.40
31062;BME280;17724;53.546;9.974;2024-02-16T14:31:00;101024.09;;;16.39;87.61
31062;BME280;17724;53.546;9.974;2024-02-16T14:35:00;101026.66;;;16.30;89.12
31062;BME280;17724;53.546;9.974;2024-02-16T14:39:01;101051.16;;;16.23;90.47
31062;BME280;17724;53.546;9.974;2024-02-16T14:43:02;101041.13;;;16.27;93.31
31062;BME280;17724;53.546;9.974;2024-02-16T14:47:02;101040.88;;;16.23;95.62
31062;BME280;17724;53.546;9.974;2024-02-16T14:51:03;101054.59;;;16.10;95.06
31062;BME280;17724;53.546;9.974;2024-02-16T14:55:05;101059.88;;;15.67;94.95
31062;BME280;17724;53.546;9.974;2024-02-16T14:59:10;101068.44;;;15.70;96.35
31062;BME280;17724;53.546;9.974;2024-02-16T15:03:11;101070.56;;;15.84;97.97
31062;BME280;17724;53.546;9.974;2024-02-16T15:07:11;101065.13;;;15.63;98.52
31062;BME280;17724;53.546;9.974;2024-02-16T15:11:12;101078.97;;;15.73;99.68
31062;BME280;17724;53.546;9.974;2024-02-16T15:15:12;101073.91;;;15.16;100.00
31062;BME280;17724;53.546;9.974;2024-02-16T15:19:13;101073.63;;;15.22;100.00
31062;BME280;17724;53.546;9.974;2024-02-16T15:23:13;101067.94;;;14.88;100.00
31062;BME280;17724;53.546;9.974;2024-02-16T15:27:14;101088.56;;;15.26;100.00
31062;BME280;17724;53.546;9.974;2024-02-16T15:31:14;101078.75;;;14.74;100.00
31062;BME280;17724;53.546;9.974;2024-02-16T15:35:15;101091.19;;;14.82;100.00
31062;BME280;17724;53.546;9.974;2024-02-16T15:39:17;101116.59;;;15.15;100.00
31062;BME280;17724;53.546;9.974;2024-02-16T15:43:17;101109.16;;;15.00;100.00
31062;BME280;17724;53.546;9.974;2024-02-16T15:47:18;101133.25;;;14.99;100.00
31062;BME280;17724;53.546;9.974;2024-02-16T15:51:19;101135.47;;;15.13;100.00
31062;BME280;17724;53.546;9.974;2024-02-16T15:55:20;101146.88;;;14.65;100.00
31062;BME280;17724;53.546;9.974;2024-02-16T15:59:21;101150.16;;;14.93;100.00
31062;BME280;17724;53.546;9.974;2024-02-16T16:03:21;101157.09;;;14.75;100.00
31062;BME280;17724;53.546;9.974;2024-02-16T16:07:22;101182.81;;;14.96;100.00
31062;BME280;17724;53.546;9.974;2024-02-16T16:11:22;101200.84;;;14.88;100.00
31062;BME280;17724;53.546;9.974;2024-02-16T16:15:23;101216.91;;;15.01;100.00
31062;BME280;17724;53.546;9.974;2024-02-16T16:19:23;101217.19;;;14.95;100.00
31062;BME280;17724;53.546;9.974;2024-02-16T16:23:24;101233.25;;;15.13;100.00
31062;BME280;17724;53.546;9.974;2024-02-16T16:27:24;101217.72;;;14.71;100.00
31062;BME280;17724;53.546;9.974;2024-02-16T16:31:25;101243.75;;;14.60;100.00
31062;BME280;17724;53.546;9.974;2024-02-16T16:35:25;101259.47;;;14.44;100.00
31062;BME280;17724;53.546;9.974;2024-02-16T16:39:26;101257.03;;;14.58;100.00
31062;BME280;17724;53.546;9.974;2024-02-16T16:43:26;101262.84;;;14.57;100.00
31062;BME280;17724;53.546;9.974;2024-02-16T16:47:27;101283.59;;;14.54;100.00
31062;BME280;17724;53.546;9.974;2024-02-16T16:51:27;101291.34;;;14.57;100.00
31062;BME280;17724;53.546;9.974;2024-02-16T16:55:28;101304.56;;;14.45;100.00
31062;BME280;17724;53.546;9.974;2024-02-16T16:59:29;101308.50;;;14.59;100.00
31062;BME280;17724;53.546;9.974;2024-02-16T17:03:29;101303.47;;;14.41;100.00
31062;BME280;17724;53.546;9.974;2024-02-16T17:07:30;101322.16;;;14.18;100.00
31062;BME280;17724;53.546;9.974;2024-02-16T17:11:32;101335.03;;;13.92;100.00
31062;BME280;17724;53.546;9.974;2024-02-16T17:15:33;101347.81;;;14.03;100.00
31062;BME280;17724;53.546;9.974;2024-02-16T17:19:34;101362.19;;;14.00;100.00
31062;BME280;17724;53.546;9.974;2024-02-16T17:23:35;101365.31;;;14.14;100.00
31062;BME280;17724;53.546;9.974;2024-02-16T17:27:35;101376.09;;;14.16;100.00
31062;BME280;17724;53.546;9.974;2024-02-16T17:31:36;101389.56;;;14.02;100.00
31062;BME280;17724;53.546;9.974;2024-02-16T17:35:36;101390.19;;;13.72;100.00
31062;BME280;17724;53.546;9.974;2024-02-16T17:39:39;101400.41;;;13.71;100.00
31062;BME280;17724;53.546;9.974;2024-02-16T17:43:40;101406.84;;;13.82;100.00
31062;BME280;17724;53.546;9.974;2024-02-16T17:47:45;101415.31;;;13.65;100.00
31062;BME280;17724;53.546;9.974;2024-02-16T17:51:45;101424.97;;;13.68;100.00
31062;BME280;17724;53.546;9.974;2024-02-16T17:55:46;101436.97;;;13.78;100.00
31062;BME280;17724;53.546;9.974;2024-02-16T17:59:46;101438.28;;;13.71;100.00
31062;BME280;17724;53.546;9.974;2024-02-16T18:03:48;101456.91;;;13.80;100.00
31062;BME280;17724;53.546;9.974;2024-02-16T18:07:50;101442.94;;;13.65;100.00
31062;BME280;17724;53.546;9.974;2024-02-16T18:11:51;101465.16;;;14.13;100.00
31062;BME280;17724;53.546;9.974;2024-02-16T18:15:52;101474.47;;;14.01;100.00
31062;BME280;17724;53.546;9.974;2024-02-16T18:19:55;101470.94;;;14.11;100.00
31062;BME280;17724;53.546;9.974;2024-02-16T18:23:56;101477.38;;;14.22;100.00
31062;BME280;17724;53.546;9.974;2024-02-16T18:27:57;101483.31;;;13.98;100.00
31062;BME280;17724;53.546;9.974;2024-02-16T18:31:57;101496.03;;;13.99;100.00
31062;BME280;17724;53.546;9.974;2024-02-16T18:35:58;101496.16;;;13.83;100.00
31062;BME280;17724;53.546;9.974;2024-02-16T18:39:58;101508.13;;;13.61;100.00
31062;BME280;17724;53.546;9.974;2024-02-16T18:43:59;101516.44;;;13.61;100.00
31062;BME280;17724;53.546;9.974;2024-02-16T18:47:59;101530.97;;;13.78;100.00
31062;BME280;17724;53.546;9.974;2024-02-16T18:52:00;101534.84;;;13.77;100.00
31062;BME280;17724;53.546;9.974;2024-02-16T18:56:00;101531.91;;;13.89;100.00
31062;BME280;17724;53.546;9.974;2024-02-16T19:00:04;101548.22;;;13.91;100.00
31062;BME280;17724;53.546;9.974;2024-02-16T19:04:05;101556.59;;;13.69;100.00
31062;BME280;17724;53.546;9.974;2024-02-16T19:08:06;101544.59;;;13.85;100.00
31062;BME280;17724;53.546;9.974;2024-02-16T19:12:07;101556.88;;;13.99;100.00
31062;BME280;17724;53.546;9.974;2024-02-16T19:16:07;101558.09;;;13.82;100.00
31062;BME280;17724;53.546;9.974;2024-02-16T19:20:09;101558.22;;;13.65;100.00
31062;BME280;17724;53.546;9.974;2024-02-16T19:24:09;101573.88;;;13.59;100.00
31062;BME280;17724;53.546;9.974;2024-02-16T19:28:10;101580.78;;;13.57;100.00
31062;BME280;17724;53.546;9.974;2024-02-16T19:32:10;101578.16;;;13.23;100.00
31062;BME280;17724;53.546;9.974;2024-02-16T19:36:11;101580.19;;;13.54;100.00
31062;BME280;17724;53.546;9.974;2024-02-16T19:40:12;101582.66;;;13.78;100.00
31062;BME280;17724;53.546;9.974;2024-02-16T19:44:13;101583.66;;;13.67;100.00
31062;BME280;17724;53.546;9.974;2024-02-16T19:48:16;101598.44;;;13.55;100.00
31062;BME280;17724;53.546;9.974;2024-02-16T19:52:17;101592.63;;;13.79;100.00
31062;BME280;17724;53.546;9.974;2024-02-16T19:56:22;101606.69;;;13.50;100.00
31062;BME280;17724;53.546;9.974;2024-02-16T20:00:23;101620.34;;;13.18;100.00
31062;BME280;17724;53.546;9.974;2024-02-16T20:04:24;101631.63;;;13.34;100.00
31062;BME280;17724;53.546;9.974;2024-02-16T20:08:24;101630.47;;;13.29;100.00
31062;BME280;17724;53.546;9.974;2024-02-16T20:12:25;101658.34;;;13.50;100.00
31062;BME280;17724;53.546;9.974;2024-02-16T20:16:26;101659.69;;;13.25;100.00
31062;BME280;17724;53.546;9.974;2024-02-16T20:20:27;101660.63;;;13.53;100.00
31062;BME280;17724;53.546;9.974;2024-02-16T20:24:28;101665.59;;;13.78;100.00
31062;BME280;17724;53.546;9.974;2024-02-16T20:28:29;101672.28;;;13.82;100.00
31062;BME280;17724;53.546;9.974;2024-02-16T20:32:29;101687.16;;;13.54;100.00
31062;BME280;17724;53.546;9.974;2024-02-16T20:36:30;101689.31;;;13.52;100.00
31062;BME280;17724;53.546;9.974;2024-02-16T20:40:31;101697.31;;;13.70;100.00
31062;BME280;17724;53.546;9.974;2024-02-16T20:44:31;101694.22;;;13.45;100.00
31062;BME280;17724;53.546;9.974;2024-02-16T20:48:32;101696.22;;;13.49;100.00